Main page
METAR-TAF:

METAR-TAF

Airports :

Strasbourg Airport

Strasbourg, France

latitude: 48-33N, longitude: 007-38E, elevation: 153 m

Current weather observation

The report was made 21 minutes ago, at 02:00 UTC
Wind 2 kt from the North
Temperature 17°C
Humidity 77%
Pressure 1014 hPa
Visibility 10 km or more
no clouds below 1500 m and no cumulonimbus

METAR: LFST 250200Z AUTO 35002KT CAVOK 17/13 Q1014 NOSIG

Time: 04:21 (02:21 UTC)

Forecast

The report was made 3 hours and 21 minutes ago, at 23:00 UTC
Forecast valid from 25 at 00 UTC to 25 at 24 UTC
Wind 6 kt from the North/Northeast
Visibility 10 km or more
no clouds below 1500 m and no cumulonimbus

TAF: LFST 242300Z 2500/2524 02006KT CAVOK

Weather observations and forecasts of more than 4000 airports (METAR and TAF reports).

The available stations are represented by yellow and red dots on the map.

Hover mouse over dot to see the name of the station.

Then click to see weather observations and forecasts.

To change the map : click on the green buttons with a black cross to zoom in, on the green button with a dash to zoom out, or on the green arrows for adjacent maps.


METAR-TAF: